METAR Data
IDs: Format: Raw Decoded Include TAF

Data at: 0242 UTC 25 Jan 2020

PAHO 250153Z 03008KT 10SM FEW085 SCT110 M10/M17 A2943 RMK AO2 SLP966 T11001172
PAHO 250053Z 02010G20KT 10SM FEW070 BKN110 M09/M17 A2942 RMK AO2 SLP965 T10891167
PAHO 242353Z 02013G17KT 10SM FEW050 FEW065 M08/M17 A2941 RMK AO2 SLP962 T10831172 11078 21194 58006
PAHO 242253Z 05007KT 10SM CLR M09/M18 A2942 RMK AO2 SLP965 T10891178
PAHO 242153Z 00000KT 10SM CLR M09/M18 A2942 RMK AO2 SLP965 T10891183
PAHO 242053Z 36003KT 10SM CLR M09/M18 A2943 RMK AO2 SLP967 T10941178 53003
PAHO 241953Z 00000KT 10SM CLR M12/M18 A2943 RMK AO2 SLP966 T11221178
PAHO 241853Z 00000KT 10SM CLR M19/M21 A2942 RMK AO2 SLP965 T11891211
PAHO 241753Z 31003KT 10SM CLR M17/M20 A2942 RMK AO2 SLP965 T11721200 11122 21183 55005
PAHO 241653Z 00000KT 10SM CLR M13/M19 A2942 RMK AO2 SLP965 T11331189
PAHO 241553Z 33003KT 10SM CLR M16/M20 A2943 RMK AO2 SLP969 T11611200
PAHO 241453Z AUTO 08005KT 10SM CLR M13/M18 A2944 RMK AO2 SLP971 T11281178 56014 TSNO
PAHO 241353Z AUTO 06005KT 10SM FEW085 M13/M19 A2945 RMK AO2 SLP973 T11281189 TSNO
PAHO 241253Z AUTO VRB04KT 10SM CLR M17/M20 A2946 RMK AO2 SLP980 T11721200 TSNO
PAHO 241153Z AUTO 00000KT 10SM CLR M18/M21 A2948 RMK AO2 SLP984 T11831206 11100 21183 58007 TSNO
PAHO 241053Z AUTO 00000KT 10SM CLR M17/M20 A2948 RMK AO2 SLP985 T11671200 TSNO
PAHO 240953Z AUTO 00000KT 10SM FEW090 M15/M19 A2950 RMK AO2 SLP990 T11501189 TSNO
PAHO 240853Z AUTO 03004KT 10SM CLR M13/M18 A2950 RMK AO2 SLP990 T11281183 410781172 55002 TSNO
PAHO 240753Z AUTO 06008KT 10SM CLR M13/M19 A2950 RMK AO2 SLP990 T11281194 TSNO
PAHO 240653Z AUTO 00000KT 10SM CLR M16/M20 A2951 RMK AO2 SLP994 T11611200 TSNO
PAHO 240553Z 03003KT 10SM CLR M12/M18 A2951 RMK AO2 SLP994 T11171183 11078 21144 53001
PAHO 240453Z 02005KT 10SM CLR M12/M18 A2950 RMK AO2 SLP993 T11221178
PAHO 240353Z 06004KT 10SM CLR M11/M17 A2950 RMK AO2 SLP992 T11061167
PAHO 240253Z 00000KT 10SM CLR M13/M17 A2950 RMK AO2 SLP992 T11331167 56007
PAHO 240153Z 03003KT 10SM CLR M12/M15 A2950 RMK AO2 SLP993 T11171150
PAHO 240053Z 00000KT 10SM CLR M09/M14 A2951 RMK AO2 SLP993 T10891144
PAHO 232353Z 08005KT 10SM CLR M09/M15 A2952 RMK AO2 SLP998 T10891150 11083 21139 56005
PAHO 232253Z 09004KT 10SM FEW055 M09/M15 A2952 RMK AO2 SLP999 T10891150
PAHO 232153Z 08004KT 10SM CLR M09/M17 A2953 RMK AO2 SLP001 T10941167
PAHO 232053Z 08007KT 10SM CLR M10/M16 A2954 RMK AO2 SLP005 T11001156 58003
PAHO 231953Z 07006KT 10SM CLR M12/M16 A2954 RMK AO2 SLP007 T11171161
PAHO 231853Z 07006KT 10SM BKN085 M12/M16 A2955 RMK AO2 SLP009 T11171156
PAHO 231753Z VRB03KT 10SM BKN085 M14/M17 A2955 RMK AO2 SLP008 I6000 T11441172 11128 21172 56007
PAHO 231653Z 00000KT 10SM CLR M14/M17 A2955 RMK AO2 SLP008 T11441172
PAHO 231553Z 08003KT 10SM SCT090 M16/M18 A2955 RMK AO2 SLP009 I1000 T11561178
PAHO 231453Z AUTO 00000KT 10SM FEW085 M13/M16 A2957 RMK AO2 SLP014 T11331161 58015 TSNO